• Join FlightAware (Why Join?)
  • Login
  • US Flag 
Gobble Gobble! 
05:31PM EST


 

Airport Tracker/Info


-or-


 

Live Flight TrackerFlight Track Log ✈ N534QS ✈ 13-May-2013 ✈ KSEA - KLGA

Flight Track Log - Related Links

Times and Time Zones

All times are in EDT time to prevent confusion due to time zone crossing. See the N534QS flight status page for this flight to view local times or setup timezone preferences in your user account.

Time Position Orientation Groundspeed Altitude Reporting Facility
EDT Latitude Longitude Course Direction KTS MPH feet Rate Location/Type
06:14PM 47.4353 -122.3103 181° South 154 177 1,400  Level Seattle Center
06:14PM 47.4042 -122.3111 181° South 173 199 3,600 3,240 Climbing Seattle Center
06:16PM 47.3397 -122.3106 180° South 244 281 7,100 3,000 Climbing Seattle Center
06:17PM 47.3169 -122.1936 106° East 308 354 10,400 2,760 Climbing Seattle Center
06:18PM 47.3444 -122.0572 73° East 351 404 13,100 2,820 Climbing Seattle Center
06:19PM 47.3842 -121.9000 69° East 381 438 16,200 2,340 Climbing Seattle Center
06:20PM 47.4189 -121.7636 69° East 400 460 17,900 2,040 Climbing Seattle Center
06:21PM 47.4392 -121.5911 80° East 430 495 20,400 2,160 Climbing Seattle Center
06:22PM 47.4297 -121.4089 94° East 446 513 22,400 2,220 Climbing Seattle Center
06:23PM 47.4192 -121.1789 94° East 470 541 25,000 1,860 Climbing Seattle Center
06:24PM 47.4081 -120.9772 95° East 485 558 26,300 1,800 Climbing Seattle Center
06:25PM 47.3969 -120.7603 94° East 522 601 28,700 2,220 Climbing Seattle Center
06:26PM 47.3856 -120.5500 94° East 519 597 30,900 1,860 Climbing Seattle Center
06:27PM 47.3756 -120.3361 94° East 525 604 32,500 1,680 Climbing Seattle Center
06:28PM 47.3639 -120.1219 95° East 526 605 34,400 1,560 Climbing Seattle Center
06:29PM 47.3500 -119.9039 95° East 534 615 35,700 1,260 Climbing Seattle Center
06:30PM 47.3375 -119.6833 95° East 541 623 37,000 1,320 Climbing Seattle Center
06:31PM 47.3231 -119.4583 95° East 552 635 38,400 960 Climbing Seattle Center
06:32PM 47.3075 -119.2303 96° East 561 646 39,000 240 Climbing Seattle Center
06:33PM 47.2931 -118.9969 95° East 572 658 39,000 -60 Level Seattle Center
06:34PM 47.2750 -118.7256 96° East 558 642 38,900  Descending Seattle Center
06:35PM 47.2594 -118.5003 96° East 556 640 39,000  Climbing Seattle Center
06:36PM 47.2439 -118.2725 96° East 561 646 39,000 -60 Level Seattle Center
06:37PM 47.2261 -118.0458 97° East 563 648 38,900  Descending Seattle Center
06:38PM 47.2167 -117.8197 93° East 558 642 39,000  Climbing Seattle Center
06:39PM 47.2139 -117.5931 91° East 559 643 39,000  Level Seattle Center
06:40PM 47.2097 -117.3733 92° East 546 628 39,000  Level Seattle Center
06:41PM 47.2031 -117.1525 92° East 548 631 39,000  Level Seattle Center
06:42PM 47.1978 -116.9256 92° East 562 647 39,000 540 Level Seattle Center
06:43PM 47.1919 -116.6553 92° East 559 643 40,100 1,080 Climbing Seattle Center
06:44PM 47.1844 -116.4322 93° East 553 636 41,300 1,140 Climbing Seattle Center
06:45PM 47.1775 -116.2106 93° East 548 631 42,400 840 Climbing Seattle Center
06:46PM 47.1703 -115.9928 93° East 540 621 43,000 420 Climbing Seattle Center
06:47PM 47.1631 -115.7708 93° East 545 627 43,300 660 Climbing Seattle Center
06:48PM 47.1542 -115.5525 93° East 539 620 44,400 780 Climbing Seattle Center
06:49PM 47.1472 -115.3592 93° East 523 602 44,900 240 Climbing Seattle Center
06:50PM 47.1558 -115.1031 87° East 531 611 44,900  Level Seattle Center
06:51PM 47.1847 -114.8872 79° East 536 617 44,900  Level Seattle Center
06:52PM 47.2133 -114.6753 79° East 534 615 45,000 60 Climbing Seattle Center
06:53PM 47.2258 -114.5911 78° East 530 610 45,000  Level Salt Lake Center
06:54PM 47.2625 -114.3414 78° East 526 605 45,000  Level Salt Lake Center
06:55PM 47.2919 -114.1322 78° East 527 606 45,000  Level Salt Lake Center
06:56PM 47.3175 -113.9231 80° East 521 600 45,000  Level Salt Lake Center
06:57PM 47.3144 -113.7078 91° East 531 611 45,000  Level Salt Lake Center
06:58PM 47.3006 -113.5003 96° East 516 594 45,000  Level Salt Lake Center
06:59PM 47.2864 -113.2928 96° East 514 592 45,000 -60 Level Salt Lake Center
07:00PM 47.2703 -113.0850 96° East 513 590 44,900  Descending Salt Lake Center
07:01PM 47.2522 -112.8400 96° East 512 589 45,000  Climbing Salt Lake Center
07:02PM 47.2372 -112.6331 96° East 512 589 45,000  Level Salt Lake Center
07:03PM 47.2231 -112.4269 96° East 509 586 45,000  Level Salt Lake Center
07:04PM 47.2056 -112.2219 97° East 508 585 45,000  Level Salt Lake Center
07:05PM 47.1894 -112.0153 96° East 511 588 45,000  Level Salt Lake Center
07:06PM 47.1728 -111.8100 97° East 511 588 45,000  Level Salt Lake Center
07:07PM 47.1544 -111.6017 97° East 515 593 45,000  Level Salt Lake Center
07:08PM 47.1325 -111.3494 97° East 523 602 45,000  Level Salt Lake Center
07:09PM 47.1153 -111.1408 97° East 522 601 45,000  Level Salt Lake Center
07:10PM 47.0956 -110.9328 98° East 522 601 45,000  Level Salt Lake Center
07:11PM 47.0772 -110.7275 97° East 515 593 45,000  Level Salt Lake Center
07:12PM 47.0575 -110.5219 98° East 515 593 45,000 -60 Level Salt Lake Center
07:13PM 47.0381 -110.3169 98° East 511 588 44,900  Descending Salt Lake Center
07:14PM 47.0178 -110.1139 98° East 510 587 45,000  Climbing Salt Lake Center
07:15PM 46.9928 -109.8689 98° East 510 587 45,000  Level Salt Lake Center
07:16PM 46.9753 -109.6586 97° East 520 598 45,000  Level Salt Lake Center
07:17PM 46.9533 -109.4522 99° East 519 597 45,000 -60 Level Salt Lake Center
07:18PM 46.9294 -109.2456 100° East 518 596 44,900  Descending Salt Lake Center
07:19PM 46.9064 -109.0269 99° East 516 594 45,000  Climbing Salt Lake Center
07:20PM 46.8842 -108.8319 99° East 511 588 45,000  Level Salt Lake Center
07:21PM 46.8581 -108.6014 99° East 514 592 45,000  Level Salt Lake Center
07:22PM 46.8353 -108.4006 99° East 518 596 45,000  Level Salt Lake Center
07:23PM 46.8083 -108.1697 100° East 518 596 45,000  Level Salt Lake Center
07:24PM 46.7869 -107.9769 99° East 507 583 45,000  Level Salt Lake Center
07:26PM 46.7633 -107.7775 100° East 513 590 45,000  Level Salt Lake Center
07:27PM 46.7356 -107.5519 100° East 510 587 45,000  Level Salt Lake Center
07:28PM 46.7122 -107.3606 100° East 503 579 45,000  Level Salt Lake Center
07:29PM 46.6836 -107.1356 100° East 504 580 45,000  Level Salt Lake Center
07:30PM 46.6597 -106.9461 100° East 501 577 45,000  Level Salt Lake Center
07:31PM 46.6350 -106.7553 101° East 501 577 45,000  Level Salt Lake Center
07:32PM 46.6061 -106.5325 101° East 502 578 45,000  Level Salt Lake Center
07:33PM 46.5808 -106.3419 101° East 502 578 45,000  Level Salt Lake Center
07:34PM 46.5486 -106.1139 102° East 509 586 45,000  Level Salt Lake Center
07:35PM 46.5222 -105.9181 101° East 514 592 45,000  Level Salt Lake Center
07:36PM 46.4889 -105.6886 102° East 517 595 45,000  Level Salt Lake Center
07:37PM 46.4606 -105.4947 102° East 516 594 45,000 -240 Level Salt Lake Center
07:38PM 46.4339 -105.3022 101° East 513 590 44,600 -540 Descending Salt Lake Center
07:39PM 46.4236 -105.0697 94° East 519 597 44,000 -540 Descending Salt Lake Center
07:40PM 46.4147 -104.8675 94° East 522 601 43,500 -600 Descending Salt Lake Center
07:41PM 46.4064 -104.6597 93° East 522 601 42,800 -660 Descending Salt Lake Center
07:42PM 46.3981 -104.4533 93° East 519 597 42,200 -600 Descending Salt Lake Center
07:43PM 46.3867 -104.2414 94° East 526 605 41,600 -600 Descending Salt Lake Center
07:44PM 46.3742 -103.9867 94° East 530 610 41,000 -300 Descending Salt Lake Center
07:45PM 46.3639 -103.7758 94° East 529 609 41,000  Level Salt Lake Center
07:46PM 46.3519 -103.5661 95° East 527 606 41,000  Level Salt Lake Center
07:47PM 46.3397 -103.3528 95° East 530 610 41,000  Level Salt Lake Center
07:48PM 46.3375 -103.2669 92° East 529 609 41,000  Level Minneapolis Center
07:49PM 46.3242 -103.0619 95° East 525 604 41,000  Level Minneapolis Center
07:50PM 46.3083 -102.8092 95° East 527 606 41,000  Level Minneapolis Center
07:51PM 46.2953 -102.5994 95° East 528 608 41,000  Level Minneapolis Center
07:52PM 46.2814 -102.3875 95° East 531 611 41,000  Level Minneapolis Center
07:53PM 46.2686 -102.1761 95° East 531 611 41,000  Level Minneapolis Center
07:54PM 46.2528 -101.9536 96° East 532 612 41,000  Level Minneapolis Center
07:55PM 46.2383 -101.7400 96° East 533 613 41,000  Level Minneapolis Center
07:56PM 46.2233 -101.5272 96° East 533 613 41,000  Level Minneapolis Center
07:57PM 46.2078 -101.3169 96° East 531 611 41,000  Level Minneapolis Center
07:58PM 46.1914 -101.1056 96° East 529 609 41,000  Level Minneapolis Center
07:59PM 46.1714 -100.8528 96° East 528 608 41,000  Level Minneapolis Center
08:00PM 46.1508 -100.6008 97° East 527 606 41,000  Level Minneapolis Center
08:01PM 46.1325 -100.3881 97° East 532 612 41,000  Level Minneapolis Center
08:02PM 46.1144 -100.1761 97° East 531 611 41,000  Level Minneapolis Center
08:03PM 46.0964 -99.9639 97° East 532 612 41,000  Level Minneapolis Center
08:04PM 46.0739 -99.7086 97° East 533 613 41,000  Level Minneapolis Center
08:05PM 46.0542 -99.4964 98° East 534 615 41,000  Level Minneapolis Center
08:06PM 46.0347 -99.2842 97° East 533 613 41,000 -120 Level Minneapolis Center
08:07PM 46.0108 -99.0278 98° East 535 616 40,800 -420 Descending Minneapolis Center
08:08PM 45.9894 -98.8167 98° East 534 615 40,200 -600 Descending Minneapolis Center
08:10PM 45.9694 -98.6047 98° East 534 615 39,600 -540 Descending Minneapolis Center
08:11PM 45.9481 -98.3936 98° East 535 616 39,000 -300 Descending Minneapolis Center
08:12PM 45.9217 -98.1375 98° East 538 619 39,000  Level Minneapolis Center
08:13PM 45.8994 -97.9336 99° East 542 624 39,000  Level Minneapolis Center
08:14PM 45.8769 -97.7203 99° East 544 626 39,000  Level Minneapolis Center
08:15PM 45.8508 -97.4842 99° East 540 621 39,000  Level Minneapolis Center
08:16PM 45.8269 -97.2708 99° East 542 624 39,000  Level Minneapolis Center
08:17PM 45.8039 -97.0583 99° East 540 621 39,000  Level Minneapolis Center
08:18PM 45.7736 -96.8056 100° East 538 619 39,000  Level Minneapolis Center
08:19PM 45.7475 -96.5956 100° East 536 617 39,000  Level Minneapolis Center
08:20PM 45.7233 -96.3839 99° East 538 619 39,000  Level Minneapolis Center
08:21PM 45.6989 -96.1725 99° East 539 620 39,000  Level Minneapolis Center
08:22PM 45.6725 -95.9644 100° East 533 613 39,000  Level Minneapolis Center
08:23PM 45.6467 -95.7522 100° East 538 619 39,000  Level Minneapolis Center
08:24PM 45.6203 -95.5425 100° East 537 618 39,000  Level Minneapolis Center
08:25PM 45.5925 -95.3317 101° East 539 620 39,000  Level Minneapolis Center
08:26PM 45.5606 -95.0806 100° East 538 619 39,000  Level Minneapolis Center
08:27PM 45.5319 -94.8714 101° East 538 619 39,000  Level Minneapolis Center
08:28PM 45.5056 -94.6631 100° East 536 617 39,000  Level Minneapolis Center
08:29PM 45.4767 -94.4556 101° East 536 617 39,000  Level Minneapolis Center
08:30PM 45.4475 -94.2497 101° East 534 615 39,000  Level Minneapolis Center
08:31PM 45.4181 -94.0406 101° East 537 618 39,000  Level Minneapolis Center
08:32PM 45.3875 -93.8294 102° East 543 625 39,000  Level Minneapolis Center
08:33PM 45.3514 -93.5786 101° East 541 623 39,000  Level Minneapolis Center
08:34PM 45.3208 -93.3694 102° East 540 621 39,000  Level Minneapolis Center
08:35PM 45.2889 -93.1592 102° East 542 624 39,000  Level Minneapolis Center
08:37PM 45.2572 -92.9522 102° East 536 617 39,000  Level Minneapolis Center
08:38PM 45.2256 -92.7431 102° East 539 620 39,000  Level Minneapolis Center
08:39PM 45.1933 -92.5342 102° East 540 621 39,000  Level Minneapolis Center
08:40PM 45.1600 -92.3275 103° East 539 620 39,000  Level Minneapolis Center
08:41PM 45.1211 -92.0778 102° East 541 623 39,000  Level Minneapolis Center
08:42PM 45.0864 -91.8706 103° East 541 623 39,000  Level Minneapolis Center
08:43PM 45.0533 -91.6650 103° East 540 621 39,000  Level Minneapolis Center
08:44PM 45.0181 -91.4586 104° East 540 621 39,000  Level Minneapolis Center
08:45PM 44.9911 -91.2950 103° East 540 621 39,000  Level Minneapolis Center
08:46PM 44.9506 -91.0481 103° East 539 620 39,000  Level Minneapolis Center
08:47PM 44.9139 -90.8333 103° East 543 625 39,000  Level Minneapolis Center
08:48PM 44.8781 -90.6292 104° East 540 621 39,000  Level Minneapolis Center
08:49PM 44.8353 -90.3833 104° East 541 623 39,000  Level Minneapolis Center
08:50PM 44.7994 -90.1775 104° East 538 619 39,000  Level Minneapolis Center
08:51PM 44.7611 -89.9722 105° East 540 621 39,000  Level Minneapolis Center
08:52PM 44.7239 -89.7678 104° East 540 621 39,000  Level Minneapolis Center
08:53PM 44.6864 -89.5636 104° East 539 620 39,000  Level Minneapolis Center
08:54PM 44.6433 -89.3253 104° East 539 620 39,000  Level Minneapolis Center
08:55PM 44.6044 -89.1219 105° East 539 620 39,000  Level Minneapolis Center
08:56PM 44.5656 -88.9197 105° East 537 618 39,000  Level Minneapolis Center
08:57PM 44.5267 -88.7158 105° East 540 621 39,000  Level Minneapolis Center
08:58PM 44.4872 -88.5122 105° East 540 621 39,000  Level Minneapolis Center
08:59PM 44.4478 -88.3086 105° East 541 623 39,000  Level Minneapolis Center
09:00PM 44.4072 -88.1053 106° East 541 623 39,000  Level Minneapolis Center
09:01PM 44.3583 -87.8675 106° East 544 626 39,000  Level Minneapolis Center
09:03PM 44.3103 -87.6303 106° East 543 625 39,000  Level Minneapolis Center
09:04PM 44.2678 -87.4278 106° East 543 625 39,000  Level Minneapolis Center
09:05PM 44.2256 -87.2267 106° East 541 623 39,000  Level Minneapolis Center
09:06PM 44.1825 -87.0197 106° East 537 618 39,000  Level Minneapolis Center
09:07PM 44.1317 -86.7786 106° East 536 617 39,000  Level Minneapolis Center
09:08PM 44.0886 -86.5781 107° East 540 621 39,000  Level Minneapolis Center
09:09PM 44.0461 -86.3792 106° East 537 618 39,000  Level Minneapolis Center
09:10PM 43.9947 -86.1417 107° East 534 615 39,000  Level Minneapolis Center
09:11PM 43.9503 -85.9422 107° East 538 619 39,000  Level Minneapolis Center
09:12PM 43.9067 -85.7436 107° East 538 619 39,000  Level Minneapolis Center
09:13PM 43.8625 -85.5467 107° East 536 617 39,000  Level Minneapolis Center
09:14PM 43.8183 -85.3489 107° East 535 616 39,000  Level Minneapolis Center
09:15PM 43.7725 -85.1511 108° East 538 619 39,000  Level Minneapolis Center
09:16PM 43.7272 -84.9536 108° East 539 620 39,000  Level Minneapolis Center
09:17PM 43.6719 -84.7172 108° East 539 620 39,000  Level Minneapolis Center
09:18PM 43.6264 -84.5197 108° East 540 621 39,000  Level Minneapolis Center
09:19PM 43.5794 -84.3233 108° East 539 620 39,000  Level Minneapolis Center
09:20PM 43.5458 -84.1950 110° East 534 615 39,000  Level Cleveland Center
09:21PM 43.4956 -83.9944 109° East 534 615 39,000  Level Cleveland Center
09:22PM 43.4547 -83.8206 108° East 529 609 39,000  Level Cleveland Center
09:23PM 43.4078 -83.6294 109° East 534 615 39,000  Level Cleveland Center
09:24PM 43.3606 -83.4386 109° East 534 615 39,000  Level Cleveland Center
09:25PM 43.3131 -83.2481 109° East 534 615 39,000  Level Cleveland Center
09:26PM 43.2672 -83.0636 109° East 529 609 39,000  Level Cleveland Center
09:27PM 43.2150 -82.8592 109° East 523 602 39,000  Level Cleveland Center
09:28PM 43.1686 -82.6753 109° East 517 595 39,000  Level Cleveland Center
09:28PM 43.1500 -82.6000 109° East 520 598 39,000  Level Toronto Center
09:29PM 43.1167 -82.4000 103° East 500 575 39,000  Level Toronto Center
09:30PM 43.1000 -82.2333 98° East 490 564 39,000  Level Toronto Center
09:31PM 43.0833 -82.0333 96° East 490 564 39,000 -120 Level Toronto Center
09:32PM 43.0833 -81.8500 90° East 490 564 38,800 -600 Descending Toronto Center
09:33PM 43.0667 -81.6833 98° East 490 564 37,800 -960 Descending Toronto Center
09:34PM 43.0500 -81.4833 96° East 500 575 36,900 -1,020 Descending Toronto Center
09:35PM 43.0333 -81.3000 97° East 510 587 35,800 -960 Descending Toronto Center
09:36PM 43.0000 -81.1000 103° East 510 587 35,000 -420 Descending Toronto Center
09:37PM 42.9833 -80.9167 97° East 520 598 35,000  Level Toronto Center
09:38PM 42.9833 -80.7000 90° East 520 598 35,000  Level Toronto Center
09:39PM 42.9667 -80.5000 96° East 510 587 35,000  Level Toronto Center
09:40PM 42.9333 -80.3167 104° East 510 587 35,000  Level Toronto Center
09:41PM 42.9167 -80.1333 97° East 510 587 35,000  Level Toronto Center
09:42PM 42.9000 -79.9500 97° East 510 587 35,000  Level Toronto Center
09:43PM 42.8833 -79.7500 96° East 510 587 35,000  Level Toronto Center
09:44PM 42.8667 -79.5667 97° East 490 564 35,000  Level Toronto Center
09:45PM 42.8611 -79.4503 94° East 494 568 35,000  Level Cleveland Center
09:46PM 42.8403 -79.2636 99° East 489 563 35,000  Level Cleveland Center
09:47PM 42.8172 -79.0831 100° East 489 563 35,000  Level Cleveland Center
09:48PM 42.7961 -78.8969 99° East 489 563 35,000  Level Cleveland Center
09:49PM 42.7744 -78.7081 99° East 489 563 35,000  Level Cleveland Center
09:50PM 42.7544 -78.5192 98° East 495 570 35,000  Level Cleveland Center
09:51PM 42.7322 -78.3333 99° East 500 575 35,000  Level Cleveland Center
09:52PM 42.7097 -78.1447 99° East 500 575 35,000  Level Cleveland Center
09:53PM 42.6867 -77.9564 99° East 505 581 35,000  Level Cleveland Center
09:54PM 42.6636 -77.7708 100° East 505 581 35,000  Level Cleveland Center
09:55PM 42.6400 -77.5828 100° East 500 575 35,000 -360 Level Cleveland Center
09:57PM 42.5814 -77.1133 99° East 497 572 33,900 -600 Descending Boston Center
09:58PM 42.5558 -76.9225 100° East 502 578 33,000 -480 Descending Boston Center
09:59PM 42.5317 -76.7375 100° East 507 583 33,000  Level Boston Center
10:00PM 42.5056 -76.5439 100° East 507 583 33,000  Level Boston Center
10:01PM 42.4725 -76.3561 103° East 507 583 33,000 -300 Level Boston Center
10:02PM 42.4406 -76.1881 104° East 507 583 32,500 -780 Descending Boston Center
10:03PM 42.3989 -75.9969 106° East 524 603 31,500 -1,320 Descending Boston Center
10:04PM 42.3628 -75.8094 105° East 519 597 29,900 -1,740 Descending Boston Center
10:05PM 42.3222 -75.6275 107° East 514 592 28,100 -2,040 Descending Boston Center
10:06PM 42.2839 -75.4317 105° East 501 577 25,900 -2,100 Descending Boston Center
10:07PM 42.2464 -75.2644 107° East 486 559 23,900 -1,800 Descending Boston Center
10:08PM 42.2125 -75.1144 107° East 452 520 22,300 -1,680 Descending Boston Center
10:09PM 42.1783 -74.9728 108° East 419 482 20,600 -1,740 Descending Boston Center
10:10PM 42.1269 -74.8392 117° Southeast 405 466 18,900 -1,620 Descending Boston Center
10:11PM 42.0733 -74.7111 119° Southeast 398 458 17,400 -1,380 Descending Boston Center
10:12PM 42.0150 -74.5975 125° Southeast 398 458 16,200 -1,380 Descending Boston Center
10:13PM 41.9317 -74.4911 136° Southeast 381 438 14,700 -1,440 Descending Boston Center
10:14PM 41.8644 -74.4053 136° Southeast 381 438 13,400 -1,320 Descending Boston Center
10:15PM 41.7806 -74.3053 138° Southeast 371 427 12,100 -1,260 Descending Boston Center
10:16PM 41.7214 -74.2314 137° Southeast 346 398 10,900 -1,200 Descending Boston Center
10:17PM 41.6539 -74.1489 138° Southeast 310 357 9,800 -900 Descending Boston Center
10:18PM 41.5925 -74.0778 139° Southeast 298 343 9,100 -720 Descending Boston Center
10:20PM 41.6355 -73.8826 73° East  Level FlightAware Approximate
10:27PM 40.8078 -73.8256 217° Southwest  Level FlightAware Approximate
10:28PM 40.7667 -73.8667 217° Southwest  Level FlightAware Approximate
10:29PM 40.7772 -73.8726 217° Southwest  Level Estimated
10:30PM 40.7772 -73.8726 217° Southwest  Level Estimated